Time;durP1;ratioP1;P1;durP2;ratioP2;P2;SDS_P1;SDS_P2;PMS_P1;PMS_P2;Temp;Humidity;BMP_temperature;BMP_pressure;BME280_temperature;BME280_humidity;BME280_pressure;Samples;Min_cycle;Max_cycle;Signal;HPM_P1;HPM_P2
2024/01/11 00:01:29;;;;;;;;;;;23.40;25.90;;;;;;5078525;28;19931;-64
2024/01/11 00:03:54;;;;;;;;;;;23.20;26.00;;;;;;5092177;28;20379;-64
2024/01/11 00:06:20;;;;;;;;;;;23.20;26.10;;;;;;5074141;28;19920;-63
2024/01/11 00:08:45;;;;;;;;;;;23.00;26.10;;;;;;5092456;28;20452;-64
2024/01/11 00:11:14;;;;;;;;;;;22.90;26.20;;;;;;5074395;28;19920;-64
2024/01/11 00:13:39;;;;;;;;;;;22.90;26.30;;;;;;5092363;28;19982;-64
2024/01/11 00:16:05;;;;;;;;;;;22.80;26.20;;;;;;5074028;28;20387;-64
2024/01/11 00:18:30;;;;;;;;;;;22.90;26.30;;;;;;5074295;28;19952;-64
2024/01/11 00:20:56;;;;;;;;;;;22.80;26.30;;;;;;5073933;28;19927;-64
2024/01/11 00:23:21;;;;;;;;;;;22.80;26.20;;;;;;5074037;28;19920;-64
2024/01/11 00:25:47;;;;;;;;;;;22.90;26.20;;;;;;5074117;28;19920;-64
2024/01/11 00:28:12;;;;;;;;;;;22.90;26.20;;;;;;5092251;28;19924;-64
2024/01/11 00:30:38;;;;;;;;;;;23.00;26.20;;;;;;5091956;28;20014;-64
2024/01/11 00:33:03;;;;;;;;;;;23.10;26.10;;;;;;5074236;28;19920;-64
2024/01/11 00:35:29;;;;;;;;;;;23.10;26.00;;;;;;5091927;28;19920;-64
2024/01/11 00:37:54;;;;;;;;;;;23.20;26.00;;;;;;5073827;28;19924;-64
2024/01/11 00:40:20;;;;;;;;;;;23.20;26.00;;;;;;5092120;28;19920;-64
2024/01/11 00:42:45;;;;;;;;;;;23.30;25.90;;;;;;5073738;28;19920;-64
2024/01/11 00:45:11;;;;;;;;;;;23.30;25.90;;;;;;5073861;28;19920;-64
2024/01/11 00:47:36;;;;;;;;;;;23.30;26.40;;;;;;5073837;28;19927;-64
2024/01/11 00:50:02;;;;;;;;;;;23.30;25.90;;;;;;5091910;28;19920;-64
2024/01/11 00:52:27;;;;;;;;;;;23.30;25.80;;;;;;5092009;28;19923;-64
2024/01/11 00:54:56;;;;;;;;;;;23.30;25.90;;;;;;5095765;28;19990;-64
2024/01/11 00:57:21;;;;;;;;;;;23.40;25.90;;;;;;5077255;28;19927;-64
2024/01/11 00:59:47;;;;;;;;;;;23.30;25.90;;;;;;5077706;28;19921;-64
2024/01/11 01:02:12;;;;;;;;;;;23.20;25.90;;;;;;5077065;28;19930;-63
2024/01/11 01:04:39;;;;;;;;;;;23.20;26.00;;;;;;5077164;28;19924;-63
2024/01/11 01:07:05;;;;;;;;;;;23.20;26.00;;;;;;5077461;28;19924;-64
2024/01/11 01:09:34;;;;;;;;;;;23.10;26.00;;;;;;5095262;28;19928;-64
2024/01/11 01:12:00;;;;;;;;;;;23.10;26.00;;;;;;5076935;28;20379;-64
2024/01/11 01:14:25;;;;;;;;;;;23.00;26.00;;;;;;5077028;28;19927;-64
2024/01/11 01:16:51;;;;;;;;;;;23.00;26.70;;;;;;5077228;28;19920;-64
2024/01/11 01:19:16;;;;;;;;;;;23.00;26.10;;;;;;5077224;28;19920;-64
2024/01/11 01:21:42;;;;;;;;;;;23.00;26.10;;;;;;5094939;28;20011;-64
2024/01/11 01:24:07;;;;;;;;;;;23.00;26.10;;;;;;5094902;28;20359;-64
2024/01/11 01:26:33;;;;;;;;;;;23.00;26.00;;;;;;5076785;28;19924;-64
2024/01/11 01:28:58;;;;;;;;;;;23.00;26.00;;;;;;5077003;28;19928;-64
2024/01/11 01:31:24;;;;;;;;;;;23.00;26.00;;;;;;5060009;28;19977;-64
2024/01/11 01:33:49;;;;;;;;;;;23.00;26.00;;;;;;5076592;28;19920;-64
2024/01/11 01:36:15;;;;;;;;;;;23.00;26.00;;;;;;5077158;28;19942;-64
2024/01/11 01:38:40;;;;;;;;;;;23.00;26.00;;;;;;5076446;28;20420;-64
2024/01/11 01:41:06;;;;;;;;;;;23.10;26.00;;;;;;5094798;28;20260;-64
2024/01/11 01:43:32;;;;;;;;;;;23.00;26.00;;;;;;5076690;28;19920;-64
2024/01/11 01:45:58;;;;;;;;;;;23.10;26.00;;;;;;5094586;28;20286;-64
2024/01/11 01:48:24;;;;;;;;;;;23.10;26.00;;;;;;5076765;28;19928;-64
2024/01/11 01:50:50;;;;;;;;;;;23.10;25.90;;;;;;5076742;28;20447;-64
2024/01/11 01:53:18;;;;;;;;;;;23.20;26.00;;;;;;5076129;28;19920;-64
2024/01/11 01:55:44;;;;;;;;;;;23.20;25.90;;;;;;5094313;28;19981;-64
2024/01/11 01:58:09;;;;;;;;;;;23.20;25.90;;;;;;5076416;28;19920;-64
2024/01/11 02:00:35;;;;;;;;;;;23.20;25.90;;;;;;5076020;28;20110;-64
2024/01/11 02:03:00;;;;;;;;;;;23.20;25.90;;;;;;5076028;28;19924;-63
2024/01/11 02:05:26;;;;;;;;;;;23.20;25.90;;;;;;5075947;28;19920;-64
2024/01/11 02:07:52;;;;;;;;;;;23.20;25.80;;;;;;5076208;28;19950;-64
2024/01/11 02:10:18;;;;;;;;;;;23.20;25.90;;;;;;5076177;28;19924;-64
2024/01/11 02:12:43;;;;;;;;;;;23.30;25.90;;;;;;5075949;28;19924;-64
2024/01/11 02:15:09;;;;;;;;;;;23.20;25.80;;;;;;5075759;28;19920;-64
2024/01/11 02:17:35;;;;;;;;;;;23.20;25.80;;;;;;5076040;28;19920;-64
2024/01/11 02:20:01;;;;;;;;;;;23.20;25.80;;;;;;5093799;28;19920;-63
2024/01/11 02:22:29;;;;;;;;;;;23.20;25.80;;;;;;5093882;28;20295;-64
2024/01/11 02:24:54;;;;;;;;;;;23.20;25.80;;;;;;5076030;28;19924;-64
2024/01/11 02:27:20;;;;;;;;;;;23.20;25.80;;;;;;5094018;28;19920;-64
2024/01/11 02:29:45;;;;;;;;;;;23.20;25.90;;;;;;5075415;28;19924;-64
2024/01/11 02:32:14;;;;;;;;;;;23.20;25.90;;;;;;5093906;28;19965;-64
2024/01/11 02:34:39;;;;;;;;;;;23.10;26.00;;;;;;5075412;28;19920;-64
2024/01/11 02:37:05;;;;;;;;;;;23.10;26.00;;;;;;5075732;28;19920;-64
2024/01/11 02:39:31;;;;;;;;;;;23.00;26.00;;;;;;5075309;28;19966;-64
2024/01/11 02:41:58;;;;;;;;;;;23.10;26.00;;;;;;5075591;28;19967;-64
2024/01/11 02:44:23;;;;;;;;;;;23.10;26.00;;;;;;5075183;28;19920;-63
2024/01/11 02:46:49;;;;;;;;;;;23.10;26.00;;;;;;5075082;28;19920;-64
2024/01/11 02:49:14;;;;;;;;;;;23.10;26.00;;;;;;5093380;28;20012;-64
2024/01/11 02:51:40;;;;;;;;;;;23.00;26.60;;;;;;5075423;28;19921;-64
2024/01/11 02:54:06;;;;;;;;;;;23.10;26.00;;;;;;5093216;28;19927;-64
2024/01/11 02:56:32;;;;;;;;;;;23.10;26.00;;;;;;5093145;28;19920;-65
2024/01/11 02:58:57;;;;;;;;;;;23.10;26.00;;;;;;5075464;28;19920;-64
2024/01/11 03:01:23;;;;;;;;;;;23.10;26.00;;;;;;5074769;28;20010;-65
2024/01/11 03:03:48;;;;;;;;;;;23.10;26.00;;;;;;5074851;28;19986;-64
2024/01/11 03:06:14;;;;;;;;;;;23.10;26.00;;;;;;5074952;28;19924;-63
2024/01/11 03:08:39;;;;;;;;;;;23.10;26.00;;;;;;5075835;28;19928;-64
2024/01/11 03:11:05;;;;;;;;;;;23.10;26.00;;;;;;5092843;28;20148;-64
2024/01/11 03:13:31;;;;;;;;;;;23.10;26.00;;;;;;5074769;28;19920;-64
2024/01/11 03:15:57;;;;;;;;;;;23.20;26.00;;;;;;5074687;28;19965;-64
2024/01/11 03:18:22;;;;;;;;;;;23.20;26.00;;;;;;5074794;28;19920;-64
2024/01/11 03:20:48;;;;;;;;;;;23.20;26.00;;;;;;5074901;28;20022;-64
2024/01/11 03:23:13;;;;;;;;;;;23.20;26.00;;;;;;5074921;28;19963;-64
2024/01/11 03:25:39;;;;;;;;;;;23.20;26.00;;;;;;5092650;28;19926;-64
2024/01/11 03:28:05;;;;;;;;;;;23.20;26.00;;;;;;5074791;28;19935;-64
2024/01/11 03:30:30;;;;;;;;;;;23.10;26.00;;;;;;5074720;28;19920;-64
2024/01/11 03:32:56;;;;;;;;;;;23.10;25.90;;;;;;5074886;28;20371;-64
2024/01/11 03:35:21;;;;;;;;;;;23.10;25.90;;;;;;5092627;28;19973;-64
2024/01/11 03:37:47;;;;;;;;;;;23.20;26.00;;;;;;5092570;28;20397;-63
2024/01/11 03:40:15;;;;;;;;;;;23.20;26.00;;;;;;5074783;28;20353;-64
2024/01/11 03:42:42;;;;;;;;;;;23.20;26.00;;;;;;5092368;28;20015;-64
2024/01/11 03:45:08;;;;;;;;;;;23.20;26.00;;;;;;5074677;28;19920;-64
2024/01/11 03:47:33;;;;;;;;;;;23.10;26.00;;;;;;5092541;28;19926;-64
2024/01/11 03:49:59;;;;;;;;;;;23.10;26.00;;;;;;5092643;28;19924;-64
2024/01/11 03:52:24;;;;;;;;;;;23.10;26.00;;;;;;5074278;28;20401;-64
2024/01/11 03:54:50;;;;;;;;;;;23.10;26.00;;;;;;5074569;28;19926;-64
2024/01/11 03:57:17;;;;;;;;;;;23.10;26.00;;;;;;5074436;28;19920;-64
2024/01/11 03:59:42;;;;;;;;;;;23.10;26.00;;;;;;5074233;28;19920;-64
2024/01/11 04:02:08;;;;;;;;;;;23.10;26.00;;;;;;5074071;28;19927;-64
2024/01/11 04:04:33;;;;;;;;;;;23.10;26.00;;;;;;5074181;28;19924;-64
2024/01/11 04:06:59;;;;;;;;;;;23.10;26.00;;;;;;5074094;28;19920;-64
2024/01/11 04:09:24;;;;;;;;;;;23.20;26.00;;;;;;5074230;28;20294;-63
2024/01/11 04:11:50;;;;;;;;;;;23.20;26.00;;;;;;5074339;28;19920;-64
2024/01/11 04:14:15;;;;;;;;;;;23.10;26.00;;;;;;5074092;28;19927;-64
2024/01/11 04:16:42;;;;;;;;;;;23.10;26.00;;;;;;5074134;28;20019;-64
2024/01/11 04:19:07;;;;;;;;;;;23.10;26.00;;;;;;5074430;28;20222;-64
2024/01/11 04:21:34;;;;;;;;;;;23.10;26.00;;;;;;5074456;28;20572;-64
2024/01/11 04:23:59;;;;;;;;;;;23.10;26.00;;;;;;5073987;28;20020;-64
2024/01/11 04:26:25;;;;;;;;;;;23.10;26.00;;;;;;5074090;28;19927;-64
2024/01/11 04:28:51;;;;;;;;;;;23.10;26.00;;;;;;5094586;28;19931;-64
2024/01/11 04:31:19;;;;;;;;;;;23.20;26.00;;;;;;5078380;28;19970;-64
2024/01/11 04:33:45;;;;;;;;;;;23.10;26.00;;;;;;5095942;28;20279;-64
2024/01/11 04:36:11;;;;;;;;;;;23.20;26.00;;;;;;5078131;28;19926;-64
2024/01/11 04:38:37;;;;;;;;;;;23.20;26.00;;;;;;5077631;28;19920;-64
2024/01/11 04:41:09;;;;;;;;;;;23.10;26.00;;;;;;5077928;28;19920;-64
2024/01/11 04:43:37;;;;;;;;;;;23.10;26.00;;;;;;5077439;28;19924;-64
2024/01/11 04:46:03;;;;;;;;;;;23.10;26.00;;;;;;5077733;28;19920;-65
2024/01/11 04:48:31;;;;;;;;;;;23.10;26.00;;;;;;5095777;28;20401;-64
2024/01/11 04:50:57;;;;;;;;;;;23.10;26.00;;;;;;5095651;28;19920;-64
2024/01/11 04:53:25;;;;;;;;;;;23.10;26.00;;;;;;5077455;28;19926;-64
2024/01/11 04:55:51;;;;;;;;;;;23.20;26.00;;;;;;5077649;28;19927;-64
2024/01/11 04:58:17;;;;;;;;;;;23.20;26.00;;;;;;5095424;28;19920;-64
2024/01/11 05:00:42;;;;;;;;;;;23.20;26.00;;;;;;5095372;28;20351;-64
2024/01/11 05:03:08;;;;;;;;;;;23.10;26.00;;;;;;5095458;28;19925;-65
2024/01/11 05:05:33;;;;;;;;;;;23.10;26.00;;;;;;5076988;28;19920;-65
2024/01/11 05:07:59;;;;;;;;;;;23.10;26.00;;;;;;5095459;28;19924;-64
2024/01/11 05:10:27;;;;;;;;;;;23.10;26.00;;;;;;5077090;28;19920;-64
2024/01/11 05:12:52;;;;;;;;;;;23.20;26.00;;;;;;5095161;28;20023;-64
2024/01/11 05:15:18;;;;;;;;;;;23.20;26.00;;;;;;5077298;28;20002;-64
2024/01/11 05:17:44;;;;;;;;;;;23.20;26.00;;;;;;5077297;28;19920;-64
2024/01/11 05:20:10;;;;;;;;;;;23.30;25.90;;;;;;5095406;28;20359;-64
2024/01/11 05:22:36;;;;;;;;;;;23.30;25.90;;;;;;5077223;28;19966;-65
2024/01/11 05:25:02;;;;;;;;;;;23.30;25.90;;;;;;5077379;28;19963;-64
2024/01/11 05:27:30;;;;;;;;;;;23.40;25.90;;;;;;5076857;28;19920;-65
2024/01/11 05:29:56;;;;;;;;;;;23.40;25.80;;;;;;5094827;28;20319;-64
2024/01/11 05:32:22;;;;;;;;;;;23.40;25.80;;;;;;5095001;28;19967;-64
2024/01/11 05:34:47;;;;;;;;;;;23.40;25.80;;;;;;5076930;28;19974;-64
2024/01/11 05:37:13;;;;;;;;;;;23.40;25.80;;;;;;5094918;28;19981;-64
2024/01/11 05:39:41;;;;;;;;;;;23.40;25.90;;;;;;5076531;28;19920;-64
2024/01/11 05:42:07;;;;;;;;;;;23.30;25.80;;;;;;5094700;28;19927;-67
2024/01/11 05:44:32;;;;;;;;;;;23.30;25.80;;;;;;5076371;28;19924;-64
2024/01/11 05:46:58;;;;;;;;;;;23.30;25.80;;;;;;5094445;28;20279;-64
2024/01/11 05:49:23;;;;;;;;;;;23.30;25.80;;;;;;5076434;28;19924;-64
2024/01/11 05:51:49;;;;;;;;;;;23.30;25.80;;;;;;5076649;28;19920;-65
2024/01/11 05:54:14;;;;;;;;;;;23.20;25.80;;;;;;5094379;28;20012;-65
2024/01/11 05:56:40;;;;;;;;;;;23.20;25.80;;;;;;5094425;28;20024;-64
2024/01/11 05:59:08;;;;;;;;;;;23.10;25.80;;;;;;5094297;28;19924;-64
2024/01/11 06:01:40;;;;;;;;;;;23.20;25.90;;;;;;5094120;28;20402;-64
2024/01/11 06:04:05;;;;;;;;;;;23.20;26.50;;;;;;5076054;28;19924;-64
2024/01/11 06:06:31;;;;;;;;;;;23.10;25.80;;;;;;5093934;28;19926;-64
2024/01/11 06:08:56;;;;;;;;;;;23.20;25.80;;;;;;5076104;28;20010;-64
2024/01/11 06:11:22;;;;;;;;;;;23.10;25.80;;;;;;5075943;28;20012;-64
2024/01/11 06:13:47;;;;;;;;;;;23.10;25.80;;;;;;5093994;28;20022;-64
2024/01/11 06:16:13;;;;;;;;;;;23.20;25.90;;;;;;5093973;28;19994;-65
2024/01/11 06:18:38;;;;;;;;;;;23.20;25.80;;;;;;5094042;28;19927;-64
2024/01/11 06:21:07;;;;;;;;;;;23.20;25.90;;;;;;5075715;28;20294;-64
2024/01/11 06:23:32;;;;;;;;;;;23.20;25.80;;;;;;5094276;28;19920;-64
2024/01/11 06:25:58;;;;;;;;;;;23.20;25.80;;;;;;5075650;28;19920;-64
2024/01/11 06:28:24;;;;;;;;;;;23.20;25.80;;;;;;5093762;28;19935;-64
2024/01/11 06:30:49;;;;;;;;;;;23.30;25.70;;;;;;5075833;28;20325;-64
2024/01/11 06:33:15;;;;;;;;;;;23.30;25.70;;;;;;5093633;28;20413;-64
2024/01/11 06:35:40;;;;;;;;;;;23.30;25.70;;;;;;5093588;28;20367;-64
2024/01/11 06:38:06;;;;;;;;;;;23.30;25.60;;;;;;5075398;28;20363;-64
2024/01/11 06:40:31;;;;;;;;;;;23.30;25.60;;;;;;5075346;28;19927;-64
2024/01/11 06:42:57;;;;;;;;;;;23.30;25.60;;;;;;5073640;28;19928;-64
2024/01/11 06:45:23;;;;;;;;;;;23.30;25.60;;;;;;5073142;28;19920;-64
2024/01/11 06:47:48;;;;;;;;;;;23.30;25.90;;;;;;5091661;28;19924;-64
2024/01/11 06:50:14;;;;;;;;;;;23.20;25.80;;;;;;5067302;28;20287;-64
2024/01/11 06:52:39;;;;;;;;;;;23.10;26.00;;;;;;5071833;28;19963;-66
2024/01/11 06:55:05;;;;;;;;;;;23.00;26.40;;;;;;5071829;28;20196;-64
2024/01/11 06:57:31;;;;;;;;;;;23.00;26.80;;;;;;5088018;28;19920;-64
2024/01/11 06:59:56;;;;;;;;;;;23.10;27.20;;;;;;5066988;28;19927;-65
2024/01/11 07:02:22;;;;;;;;;;;23.20;27.00;;;;;;5049480;28;19921;-64
2024/01/11 07:04:48;;;;;;;;;;;23.40;26.90;;;;;;5047513;28;20632;-66
2024/01/11 07:07:13;;;;;;;;;;;23.70;26.70;;;;;;5043757;28;20296;-64
2024/01/11 07:09:39;;;;;;;;;;;24.10;26.40;;;;;;5044210;28;20015;-66
2024/01/11 07:12:05;;;;;;;;;;;24.40;26.10;;;;;;5042740;28;20019;-64
2024/01/11 07:14:30;;;;;;;;;;;24.70;25.80;;;;;;5029245;28;19924;-64
2024/01/11 07:16:56;;;;;;;;;;;24.90;25.60;;;;;;5035137;28;20454;-64
2024/01/11 07:19:22;;;;;;;;;;;25.00;25.50;;;;;;5044292;28;20371;-64
2024/01/11 07:21:47;;;;;;;;;;;25.00;25.40;;;;;;5044720;28;20392;-63
2024/01/11 07:24:18;;;;;;;;;;;25.00;25.40;;;;;;5045188;28;19927;-66
2024/01/11 07:26:44;;;;;;;;;;;24.80;25.40;;;;;;5038557;28;19928;-64
2024/01/11 07:29:09;;;;;;;;;;;24.60;25.50;;;;;;5047487;28;19925;-64
2024/01/11 07:31:35;;;;;;;;;;;24.40;25.60;;;;;;5048592;28;19924;-64
2024/01/11 07:34:00;;;;;;;;;;;24.20;25.80;;;;;;5035759;28;20360;-64
2024/01/11 07:36:26;;;;;;;;;;;24.00;25.90;;;;;;5034505;28;19921;-64
2024/01/11 07:38:51;;;;;;;;;;;23.80;26.70;;;;;;5032626;28;20026;-64
2024/01/11 07:41:17;;;;;;;;;;;23.50;26.30;;;;;;5032211;28;20012;-64
2024/01/11 07:43:43;;;;;;;;;;;23.30;26.50;;;;;;5032005;28;19921;-64
2024/01/11 07:46:08;;;;;;;;;;;23.10;26.70;;;;;;5034156;28;19921;-64
2024/01/11 07:48:37;;;;;;;;;;;23.00;26.70;;;;;;5032658;28;19994;-64
2024/01/11 07:51:06;;;;;;;;;;;22.90;26.80;;;;;;5032640;28;20008;-64
2024/01/11 07:53:32;;;;;;;;;;;22.90;26.80;;;;;;5036047;28;19921;-64
2024/01/11 07:56:01;;;;;;;;;;;22.90;26.70;;;;;;5033649;28;19921;-64
2024/01/11 07:58:26;;;;;;;;;;;23.00;26.70;;;;;;5043235;28;20402;-64
2024/01/11 08:00:52;;;;;;;;;;;23.00;26.60;;;;;;5033509;28;19920;-64
2024/01/11 08:03:17;;;;;;;;;;;23.10;26.60;;;;;;5042856;28;19936;-64
2024/01/11 08:05:44;;;;;;;;;;;23.20;26.60;;;;;;5038742;28;20533;-64
2024/01/11 08:08:09;;;;;;;;;;;23.20;26.40;;;;;;5036272;28;19929;-64
2024/01/11 08:10:35;;;;;;;;;;;23.30;26.40;;;;;;5037880;28;19929;-64
2024/01/11 08:13:00;;;;;;;;;;;23.40;26.30;;;;;;5037583;28;19928;-64
2024/01/11 08:15:26;;;;;;;;;;;23.60;26.20;;;;;;5052455;28;19929;-64
2024/01/11 08:17:52;;;;;;;;;;;23.60;26.20;;;;;;5039920;28;19968;-64
2024/01/11 08:20:19;;;;;;;;;;;23.70;26.10;;;;;;5035129;28;20453;-66
2024/01/11 08:22:46;;;;;;;;;;;23.80;26.10;;;;;;5037180;28;20395;-64
2024/01/11 08:25:13;;;;;;;;;;;23.80;26.00;;;;;;5030002;28;19928;-64
2024/01/11 08:27:41;;;;;;;;;;;23.70;25.90;;;;;;5038168;28;19921;-64
2024/01/11 08:30:08;;;;;;;;;;;23.70;26.00;;;;;;5042845;28;20415;-64
2024/01/11 08:32:38;;;;;;;;;;;23.60;26.00;;;;;;5041264;28;20347;-64
2024/01/11 08:35:05;;;;;;;;;;;23.50;26.00;;;;;;5037462;28;19925;-64
2024/01/11 08:37:30;;;;;;;;;;;23.50;26.10;;;;;;5038029;28;19928;-64
2024/01/11 08:39:58;;;;;;;;;;;23.40;26.10;;;;;;5024853;28;19921;-64
2024/01/11 08:42:24;;;;;;;;;;;23.30;26.10;;;;;;5035748;28;20276;-64
2024/01/11 08:44:50;;;;;;;;;;;23.30;26.20;;;;;;5045670;28;20399;-64
2024/01/11 08:47:15;;;;;;;;;;;23.20;26.10;;;;;;5038531;28;20022;-66
2024/01/11 08:49:41;;;;;;;;;;;23.20;26.10;;;;;;5026734;28;19940;-65
2024/01/11 08:52:09;;;;;;;;;;;23.20;26.20;;;;;;5026496;28;20063;-64
2024/01/11 08:54:35;;;;;;;;;;;23.20;26.20;;;;;;5048365;28;19979;-67
2024/01/11 08:57:01;;;;;;;;;;;23.20;26.20;;;;;;5048073;28;20019;-67
2024/01/11 08:59:27;;;;;;;;;;;23.20;26.10;;;;;;5050659;28;19932;-66
2024/01/11 09:01:52;;;;;;;;;;;23.20;26.10;;;;;;5058775;28;19924;-65
2024/01/11 09:04:18;;;;;;;;;;;23.20;26.00;;;;;;5065164;28;19935;-67
2024/01/11 09:06:44;;;;;;;;;;;23.30;26.00;;;;;;5055312;28;19970;-66
2024/01/11 09:09:10;;;;;;;;;;;23.40;26.00;;;;;;5059350;28;19989;-64
2024/01/11 09:11:35;;;;;;;;;;;23.40;26.00;;;;;;5069708;28;20474;-67
2024/01/11 09:14:02;;;;;;;;;;;23.40;25.80;;;;;;5069558;28;19924;-66
2024/01/11 09:16:28;;;;;;;;;;;23.50;25.80;;;;;;5075799;28;20216;-65
2024/01/11 09:18:54;;;;;;;;;;;23.60;25.80;;;;;;5070440;28;20283;-64
2024/01/11 09:21:19;;;;;;;;;;;23.60;25.80;;;;;;5072517;28;19931;-67
2024/01/11 09:23:45;;;;;;;;;;;23.60;25.70;;;;;;5054409;28;20250;-65
2024/01/11 09:26:10;;;;;;;;;;;23.60;25.80;;;;;;5072353;28;19970;-65
2024/01/11 09:28:36;;;;;;;;;;;23.60;25.80;;;;;;5058046;28;20279;-64
2024/01/11 09:31:02;;;;;;;;;;;23.50;25.80;;;;;;5057582;28;19927;-65
2024/01/11 09:33:27;;;;;;;;;;;23.50;25.80;;;;;;5075058;28;19954;-65
2024/01/11 09:35:54;;;;;;;;;;;23.40;25.80;;;;;;5073686;28;19924;-65
2024/01/11 09:38:20;;;;;;;;;;;23.40;25.90;;;;;;5057180;28;20015;-65
2024/01/11 09:40:46;;;;;;;;;;;23.30;26.00;;;;;;5065760;28;20347;-64
2024/01/11 09:43:12;;;;;;;;;;;23.30;26.00;;;;;;5066109;28;19924;-65
2024/01/11 09:45:38;;;;;;;;;;;23.30;26.10;;;;;;5059498;28;20498;-65
2024/01/11 09:48:06;;;;;;;;;;;23.20;26.10;;;;;;5074964;28;19947;-65
2024/01/11 09:50:31;;;;;;;;;;;23.20;26.20;;;;;;5055847;28;20115;-64
2024/01/11 09:52:58;;;;;;;;;;;23.20;26.20;;;;;;5070420;28;19924;-65
2024/01/11 09:55:23;;;;;;;;;;;23.20;26.20;;;;;;5053299;28;19928;-67
2024/01/11 09:57:52;;;;;;;;;;;23.20;26.20;;;;;;5058430;28;19931;-64
2024/01/11 10:00:20;;;;;;;;;;;23.20;26.20;;;;;;5074088;28;19920;-64
2024/01/11 10:02:46;;;;;;;;;;;23.30;26.20;;;;;;5071647;28;20019;-64
2024/01/11 10:05:13;;;;;;;;;;;23.30;26.10;;;;;;5053635;28;19935;-64
2024/01/11 10:07:39;;;;;;;;;;;23.40;26.20;;;;;;5055162;28;19924;-65
2024/01/11 10:10:07;;;;;;;;;;;23.40;26.10;;;;;;5051306;28;20212;-64
2024/01/11 10:12:34;;;;;;;;;;;23.40;26.10;;;;;;5053396;28;19928;-65
2024/01/11 10:15:05;;;;;;;;;;;23.50;26.10;;;;;;5070773;28;20265;-65
2024/01/11 10:17:30;;;;;;;;;;;23.50;26.00;;;;;;5053961;28;19924;-65
2024/01/11 10:19:58;;;;;;;;;;;23.60;26.00;;;;;;5043186;28;20508;-65
2024/01/11 10:22:24;;;;;;;;;;;23.60;26.10;;;;;;5071750;28;19931;-65
2024/01/11 10:24:49;;;;;;;;;;;23.50;26.10;;;;;;5067279;28;20352;-66
2024/01/11 10:27:15;;;;;;;;;;;23.60;26.10;;;;;;5045775;28;19928;-65
2024/01/11 10:29:40;;;;;;;;;;;23.60;26.20;;;;;;5055197;28;19954;-65
2024/01/11 10:32:06;;;;;;;;;;;23.50;26.20;;;;;;5048611;28;19920;-65
2024/01/11 10:34:31;;;;;;;;;;;23.50;26.20;;;;;;5056198;28;19920;-66
2024/01/11 10:36:57;;;;;;;;;;;23.40;26.30;;;;;;5064636;28;20259;-67
2024/01/11 10:39:25;;;;;;;;;;;23.40;26.30;;;;;;5077444;28;19924;-67
2024/01/11 10:41:56;;;;;;;;;;;23.40;26.40;;;;;;5072660;28;19928;-68
2024/01/11 10:44:22;;;;;;;;;;;23.30;26.40;;;;;;5056686;28;19921;-69
2024/01/11 10:46:48;;;;;;;;;;;23.30;26.40;;;;;;5071336;28;19930;-67
2024/01/11 10:49:16;;;;;;;;;;;23.30;26.40;;;;;;5051359;28;19924;-67
2024/01/11 10:51:47;;;;;;;;;;;23.30;26.50;;;;;;5074424;28;19986;-68
2024/01/11 10:54:14;;;;;;;;;;;23.30;26.50;;;;;;5059558;28;19924;-68
2024/01/11 10:56:41;;;;;;;;;;;23.30;26.50;;;;;;5056270;28;19993;-68
2024/01/11 10:59:07;;;;;;;;;;;23.30;27.10;;;;;;5058240;28;20390;-68
2024/01/11 11:01:33;;;;;;;;;;;23.30;26.40;;;;;;5071166;28;19920;-67
2024/01/11 11:03:59;;;;;;;;;;;23.40;26.40;;;;;;5060263;28;19935;-67
2024/01/11 11:06:28;;;;;;;;;;;23.50;26.40;;;;;;5057301;28;19931;-67
2024/01/11 11:08:53;;;;;;;;;;;23.50;26.40;;;;;;5057597;28;19929;-67
2024/01/11 11:11:20;;;;;;;;;;;23.50;26.40;;;;;;5078181;28;20372;-67
2024/01/11 11:13:47;;;;;;;;;;;23.50;26.40;;;;;;5054098;28;19957;-68
2024/01/11 11:16:14;;;;;;;;;;;23.50;26.30;;;;;;5066243;28;19931;-67
2024/01/11 11:18:39;;;;;;;;;;;23.60;26.30;;;;;;5075966;28;20651;-68
2024/01/11 11:21:08;;;;;;;;;;;23.60;26.30;;;;;;5059085;28;19934;-67
2024/01/11 11:23:33;;;;;;;;;;;23.60;26.30;;;;;;5077050;28;19920;-68
2024/01/11 11:25:59;;;;;;;;;;;23.60;26.40;;;;;;5060903;28;19970;-67
2024/01/11 11:28:27;;;;;;;;;;;23.50;26.40;;;;;;5056441;28;19929;-67
2024/01/11 11:30:53;;;;;;;;;;;23.50;26.50;;;;;;5059810;28;19947;-69
2024/01/11 11:33:21;;;;;;;;;;;23.50;26.50;;;;;;5056993;28;20403;-67
2024/01/11 11:35:54;;;;;;;;;;;23.60;26.70;;;;;;5043015;28;19924;-67
2024/01/11 11:38:20;;;;;;;;;;;23.80;26.80;;;;;;5057492;28;20015;-68
2024/01/11 11:40:47;;;;;;;;;;;24.00;26.60;;;;;;5069315;28;19955;-67
2024/01/11 11:43:13;;;;;;;;;;;24.30;26.50;;;;;;5050014;28;19935;-70
2024/01/11 11:45:41;;;;;;;;;;;24.70;26.40;;;;;;5057447;28;19974;-66
2024/01/11 11:48:32;;;;;;;;;;;24.90;26.30;;;;;;5070023;28;21299;-68
2024/01/11 11:53:45;;;;;;;;;;;24.90;26.50;;;;;;5072563;27;20115;-66
2024/01/11 11:56:10;;;;;;;;;;;25.30;26.60;;;;;;5066990;28;20311;-66
2024/01/11 11:58:36;;;;;;;;;;;25.40;26.50;;;;;;5055623;28;19925;-65
2024/01/11 12:01:02;;;;;;;;;;;25.80;26.50;;;;;;5094983;28;19930;-66
2024/01/11 12:03:32;;;;;;;;;;;26.00;26.30;;;;;;5109525;28;20469;-66
2024/01/11 12:05:58;;;;;;;;;;;26.20;26.50;;;;;;5073761;28;19924;-66
2024/01/11 12:08:23;;;;;;;;;;;26.40;26.40;;;;;;5109321;28;19920;-66
2024/01/11 12:10:49;;;;;;;;;;;26.60;26.30;;;;;;5079566;28;20442;-66
2024/01/11 12:13:14;;;;;;;;;;;26.80;26.20;;;;;;5076781;28;19932;-65
2024/01/11 12:15:40;;;;;;;;;;;27.10;26.10;;;;;;5103760;27;19925;-68
2024/01/11 12:18:06;;;;;;;;;;;27.30;26.10;;;;;;5106892;27;20476;-67
2024/01/11 12:20:32;;;;;;;;;;;27.40;26.00;;;;;;5071050;28;19928;-69
2024/01/11 12:22:58;;;;;;;;;;;27.60;26.00;;;;;;5072325;28;19976;-68
2024/01/11 12:25:27;;;;;;;;;;;27.60;25.50;;;;;;5066883;28;19924;-66
2024/01/11 12:27:52;;;;;;;;;;;27.40;25.70;;;;;;5067908;28;19925;-68
2024/01/11 12:30:18;;;;;;;;;;;27.40;25.80;;;;;;5091903;28;20426;-67
2024/01/11 12:32:43;;;;;;;;;;;27.40;25.90;;;;;;5070468;28;20361;-67
2024/01/11 12:35:10;;;;;;;;;;;27.40;25.70;;;;;;5067331;28;19928;-66
2024/01/11 12:37:35;;;;;;;;;;;27.20;25.80;;;;;;5098449;28;19947;-66
2024/01/11 12:40:01;;;;;;;;;;;27.20;26.00;;;;;;5071612;28;19920;-69
2024/01/11 12:42:27;;;;;;;;;;;27.30;25.80;;;;;;5065959;28;20015;-68
2024/01/11 12:44:53;;;;;;;;;;;27.20;25.80;;;;;;5066814;28;19924;-68
2024/01/11 12:47:18;;;;;;;;;;;27.00;25.90;;;;;;5048194;28;20094;-68
2024/01/11 12:49:45;;;;;;;;;;;26.90;26.20;;;;;;5062745;28;19934;-67
2024/01/11 12:52:19;;;;;;;;;;;26.90;26.10;;;;;;5066141;28;19928;-66
2024/01/11 12:54:45;;;;;;;;;;;27.00;26.40;;;;;;5066118;28;20002;-66
2024/01/11 12:57:12;;;;;;;;;;;27.20;26.40;;;;;;5067506;28;20062;-67
2024/01/11 12:59:39;;;;;;;;;;;27.40;26.70;;;;;;5099943;28;19930;-66
2024/01/11 13:02:05;;;;;;;;;;;27.40;25.80;;;;;;5067063;28;20011;-68
2024/01/11 13:04:31;;;;;;;;;;;27.30;26.30;;;;;;5057741;28;19935;-68
2024/01/11 13:06:56;;;;;;;;;;;27.40;26.30;;;;;;5081944;28;20412;-68
2024/01/11 13:09:22;;;;;;;;;;;27.50;26.20;;;;;;5060976;28;20380;-67
2024/01/11 13:11:48;;;;;;;;;;;27.70;26.20;;;;;;5062706;28;19932;-68
2024/01/11 13:14:18;;;;;;;;;;;27.90;26.30;;;;;;5062122;28;20516;-69
2024/01/11 13:16:45;;;;;;;;;;;28.00;26.30;;;;;;5059864;28;19925;-70
2024/01/11 13:19:11;;;;;;;;;;;28.20;26.20;;;;;;5058400;28;19969;-69
2024/01/11 13:21:37;;;;;;;;;;;28.20;26.20;;;;;;5062010;28;19924;-69
2024/01/11 13:24:02;;;;;;;;;;;28.30;26.30;;;;;;5066573;28;19921;-70
2024/01/11 13:26:28;;;;;;;;;;;28.40;26.20;;;;;;5094860;28;20634;-68
2024/01/11 13:28:53;;;;;;;;;;;28.40;25.90;;;;;;5063646;28;19929;-70
2024/01/11 13:31:20;;;;;;;;;;;28.30;25.80;;;;;;5060673;28;19993;-69
2024/01/11 13:33:46;;;;;;;;;;;28.10;25.80;;;;;;5060519;28;19958;-68
2024/01/11 13:36:11;;;;;;;;;;;28.00;25.90;;;;;;5062809;28;20492;-68
2024/01/11 13:38:37;;;;;;;;;;;27.80;26.00;;;;;;5063493;28;19925;-70
2024/01/11 13:41:05;;;;;;;;;;;27.70;26.30;;;;;;5062706;28;20011;-67
2024/01/11 13:43:30;;;;;;;;;;;27.70;26.20;;;;;;5063443;28;20299;-66
2024/01/11 13:45:59;;;;;;;;;;;27.60;26.60;;;;;;5062813;28;19970;-66
2024/01/11 13:48:24;;;;;;;;;;;27.70;26.40;;;;;;5060896;28;20381;-65
2024/01/11 13:50:50;;;;;;;;;;;27.60;26.50;;;;;;5097600;28;19921;-68
2024/01/11 13:53:15;;;;;;;;;;;27.40;26.70;;;;;;5067030;28;20439;-68
2024/01/11 13:55:41;;;;;;;;;;;27.40;26.70;;;;;;5064337;28;19924;-70
2024/01/11 13:58:06;;;;;;;;;;;27.40;26.70;;;;;;5051376;28;19920;-68
2024/01/11 14:00:35;;;;;;;;;;;27.40;27.00;;;;;;5059154;28;19920;-67
2024/01/11 14:03:01;;;;;;;;;;;27.60;27.30;;;;;;5062744;28;20284;-69
2024/01/11 14:05:26;;;;;;;;;;;27.80;27.10;;;;;;5062587;28;19921;-67
2024/01/11 14:07:57;;;;;;;;;;;28.10;27.10;;;;;;5058916;28;20412;-67
2024/01/11 14:10:23;;;;;;;;;;;28.40;27.10;;;;;;5091490;28;19932;-68
2024/01/11 14:12:49;;;;;;;;;;;28.50;26.90;;;;;;5063178;28;19925;-68